sensor_id;sensor_type;location;lat;lon;timestamp;pressure;altitude;pressure_sealevel;temperature;humidity
55550;BME280;41397;49.972;18.944;2022-09-20T00:02:18;101719.23;;;12.37;88.62
55550;BME280;41397;49.972;18.944;2022-09-20T00:05:19;101717.59;;;12.35;88.38
55550;BME280;41397;49.972;18.944;2022-09-20T00:08:20;101718.59;;;12.34;88.36
55550;BME280;41397;49.972;18.944;2022-09-20T00:11:26;101722.55;;;12.30;88.90
55550;BME280;41397;49.972;18.944;2022-09-20T00:14:29;101723.41;;;12.30;88.75
55550;BME280;41397;49.972;18.944;2022-09-20T00:17:30;101724.09;;;12.34;88.75
55550;BME280;41397;49.972;18.944;2022-09-20T00:20:32;101730.45;;;12.34;88.89
55550;BME280;41397;49.972;18.944;2022-09-20T00:23:33;101730.45;;;12.34;88.75
55550;BME280;41397;49.972;18.944;2022-09-20T00:26:36;101732.73;;;12.40;88.37
55550;BME280;41397;49.972;18.944;2022-09-20T00:29:38;101728.34;;;12.38;88.41
55550;BME280;41397;49.972;18.944;2022-09-20T00:32:40;101735.92;;;12.34;88.30
55550;BME280;41397;49.972;18.944;2022-09-20T00:35:45;101733.28;;;12.33;88.23
55550;BME280;41397;49.972;18.944;2022-09-20T00:38:46;101735.52;;;12.28;88.28
55550;BME280;41397;49.972;18.944;2022-09-20T00:41:48;101728.49;;;12.24;88.18
55550;BME280;41397;49.972;18.944;2022-09-20T00:44:59;101737.26;;;12.29;88.26
55550;BME280;41397;49.972;18.944;2022-09-20T00:51:17;101738.26;;;12.28;88.35
55550;BME280;41397;49.972;18.944;2022-09-20T00:54:24;101738.35;;;12.26;88.31
55550;BME280;41397;49.972;18.944;2022-09-20T00:57:27;101742.31;;;12.22;88.20
55550;BME280;41397;49.972;18.944;2022-09-20T01:00:36;101733.74;;;12.27;88.05
55550;BME280;41397;49.972;18.944;2022-09-20T01:03:39;101731.88;;;12.27;88.32
55550;BME280;41397;49.972;18.944;2022-09-20T01:06:43;101729.37;;;12.24;88.53
55550;BME280;41397;49.972;18.944;2022-09-20T01:09:51;101741.74;;;12.30;88.08
55550;BME280;41397;49.972;18.944;2022-09-20T01:12:52;101727.16;;;12.29;87.74
55550;BME280;41397;49.972;18.944;2022-09-20T01:15:56;101732.10;;;12.24;88.03
55550;BME280;41397;49.972;18.944;2022-09-20T01:19:07;101724.65;;;12.26;88.00
55550;BME280;41397;49.972;18.944;2022-09-20T01:22:21;101731.77;;;12.29;87.82
55550;BME280;41397;49.972;18.944;2022-09-20T01:28:37;101728.39;;;12.25;87.64
55550;BME280;41397;49.972;18.944;2022-09-20T01:31:51;101733.64;;;12.28;87.30
55550;BME280;41397;49.972;18.944;2022-09-20T01:34:58;101731.88;;;12.27;87.64
55550;BME280;41397;49.972;18.944;2022-09-20T01:38:15;101730.03;;;12.28;87.57
55550;BME280;41397;49.972;18.944;2022-09-20T01:41:22;101733.88;;;12.25;87.59
55550;BME280;41397;49.972;18.944;2022-09-20T01:47:46;101725.66;;;12.25;87.84
55550;BME280;41397;49.972;18.944;2022-09-20T02:17:01;101731.56;;;12.19;87.60
55550;BME280;41397;49.972;18.944;2022-09-20T02:26:49;101728.19;;;12.15;88.19
55550;BME280;41397;49.972;18.944;2022-09-20T02:29:59;101731.56;;;12.19;87.80
55550;BME280;41397;49.972;18.944;2022-09-20T02:36:22;101735.87;;;12.10;88.35
55550;BME280;41397;49.972;18.944;2022-09-20T02:39:47;101738.51;;;12.12;88.35
55550;BME280;41397;49.972;18.944;2022-09-20T02:49:22;101747.48;;;12.14;88.49
55550;BME280;41397;49.972;18.944;2022-09-20T03:05:22;101751.12;;;12.14;88.46
55550;BME280;41397;49.972;18.944;2022-09-20T03:08:31;101754.83;;;12.13;88.24
55550;BME280;41397;49.972;18.944;2022-09-20T03:11:46;101756.48;;;12.16;88.37
55550;BME280;41397;49.972;18.944;2022-09-20T03:18:08;101755.05;;;12.10;87.78
55550;BME280;41397;49.972;18.944;2022-09-20T03:21:24;101768.77;;;12.10;88.20
55550;BME280;41397;49.972;18.944;2022-09-20T03:40:49;101772.05;;;12.15;87.77
55550;BME280;41397;49.972;18.944;2022-09-20T03:47:29;101772.93;;;12.16;87.68
55550;BME280;41397;49.972;18.944;2022-09-20T04:07:14;101783.16;;;12.01;87.86
55550;BME280;41397;49.972;18.944;2022-09-20T04:10:32;101781.71;;;12.08;87.80
55550;BME280;41397;49.972;18.944;2022-09-20T04:13:39;101778.45;;;12.03;87.76
55550;BME280;41397;49.972;18.944;2022-09-20T04:20:04;101788.19;;;11.94;87.62
55550;BME280;41397;49.972;18.944;2022-09-20T04:26:28;101790.06;;;12.07;87.45
55550;BME280;41397;49.972;18.944;2022-09-20T04:29:38;101800.05;;;11.95;88.19
55550;BME280;41397;49.972;18.944;2022-09-20T04:32:50;101802.34;;;11.88;88.25
55550;BME280;41397;49.972;18.944;2022-09-20T04:55:50;101808.82;;;11.87;88.12
55550;BME280;41397;49.972;18.944;2022-09-20T04:59:05;101808.82;;;11.87;88.14
55550;BME280;41397;49.972;18.944;2022-09-20T05:18:30;101821.20;;;11.93;87.86
55550;BME280;41397;49.972;18.944;2022-09-20T05:31:33;101832.52;;;12.01;88.26
55550;BME280;41397;49.972;18.944;2022-09-20T05:44:30;101837.64;;;12.06;87.87
55550;BME280;41397;49.972;18.944;2022-09-20T05:47:43;101838.41;;;12.08;87.99
55550;BME280;41397;49.972;18.944;2022-09-20T06:00:34;101834.80;;;12.20;87.98
55550;BME280;41397;49.972;18.944;2022-09-20T06:07:07;101852.13;;;12.33;88.05
55550;BME280;41397;49.972;18.944;2022-09-20T06:20:23;101859.26;;;12.23;86.70
55550;BME280;41397;49.972;18.944;2022-09-20T06:23:10;101863.55;;;12.14;86.63
55550;BME280;41397;49.972;18.944;2022-09-20T06:26:18;101861.36;;;12.19;86.93
55550;BME280;41397;49.972;18.944;2022-09-20T06:29:28;101865.07;;;12.18;86.42
55550;BME280;41397;49.972;18.944;2022-09-20T06:32:30;101863.20;;;12.19;87.08
55550;BME280;41397;49.972;18.944;2022-09-20T06:35:48;101871.52;;;12.30;86.90
55550;BME280;41397;49.972;18.944;2022-09-20T06:42:16;101880.53;;;12.32;86.42
55550;BME280;41397;49.972;18.944;2022-09-20T06:45:18;101879.33;;;12.24;86.02
55550;BME280;41397;49.972;18.944;2022-09-20T06:48:19;101884.15;;;12.33;86.07
55550;BME280;41397;49.972;18.944;2022-09-20T06:51:22;101879.34;;;12.36;85.81
55550;BME280;41397;49.972;18.944;2022-09-20T06:54:25;101883.61;;;12.40;85.97
55550;BME280;41397;49.972;18.944;2022-09-20T06:57:35;101888.99;;;12.42;85.89
55550;BME280;41397;49.972;18.944;2022-09-20T07:00:40;101887.90;;;12.44;86.04
55550;BME280;41397;49.972;18.944;2022-09-20T07:03:41;101894.26;;;12.45;85.90
55550;BME280;41397;49.972;18.944;2022-09-20T07:06:42;101895.02;;;12.34;85.71
55550;BME280;41397;49.972;18.944;2022-09-20T07:09:44;101894.80;;;12.37;85.90
55550;BME280;41397;49.972;18.944;2022-09-20T07:12:47;101903.57;;;12.30;85.49
55550;BME280;41397;49.972;18.944;2022-09-20T07:15:49;101902.38;;;12.34;85.18
55550;BME280;41397;49.972;18.944;2022-09-20T07:18:51;101904.90;;;12.37;85.36
55550;BME280;41397;49.972;18.944;2022-09-20T07:21:52;101915.97;;;12.35;85.74
55550;BME280;41397;49.972;18.944;2022-09-20T07:24:55;101925.97;;;12.36;85.49
55550;BME280;41397;49.972;18.944;2022-09-20T07:28:02;101921.36;;;12.37;85.52
55550;BME280;41397;49.972;18.944;2022-09-20T07:31:03;101921.36;;;12.37;85.34
55550;BME280;41397;49.972;18.944;2022-09-20T07:34:05;101930.04;;;12.31;84.90
55550;BME280;41397;49.972;18.944;2022-09-20T07:37:06;101926.83;;;12.24;85.34
55550;BME280;41397;49.972;18.944;2022-09-20T07:40:09;101931.77;;;12.19;85.09
55550;BME280;41397;49.972;18.944;2022-09-20T07:43:11;101925.96;;;12.24;84.73
55550;BME280;41397;49.972;18.944;2022-09-20T07:46:13;101939.45;;;12.27;84.18
55550;BME280;41397;49.972;18.944;2022-09-20T07:49:14;101942.42;;;12.36;84.37
55550;BME280;41397;49.972;18.944;2022-09-20T07:52:16;101937.38;;;12.43;83.86
55550;BME280;41397;49.972;18.944;2022-09-20T07:55:18;101944.84;;;12.54;83.46
55550;BME280;41397;49.972;18.944;2022-09-20T07:58:19;101945.17;;;12.62;82.89
55550;BME280;41397;49.972;18.944;2022-09-20T08:01:20;101941.34;;;12.64;82.13
55550;BME280;41397;49.972;18.944;2022-09-20T08:04:23;101944.82;;;12.79;82.44
55550;BME280;41397;49.972;18.944;2022-09-20T08:07:24;101947.77;;;12.89;82.31
55550;BME280;41397;49.972;18.944;2022-09-20T08:10:25;101948.78;;;12.88;81.61
55550;BME280;41397;49.972;18.944;2022-09-20T08:13:27;101947.45;;;12.94;81.64
55550;BME280;41397;49.972;18.944;2022-09-20T08:16:30;101952.38;;;13.01;81.37
55550;BME280;41397;49.972;18.944;2022-09-20T08:19:32;101955.77;;;13.05;81.64
55550;BME280;41397;49.972;18.944;2022-09-20T08:22:33;101954.13;;;13.02;81.21
55550;BME280;41397;49.972;18.944;2022-09-20T08:25:35;101958.19;;;13.09;81.21
55550;BME280;41397;49.972;18.944;2022-09-20T08:28:39;101957.82;;;13.14;81.28
55550;BME280;41397;49.972;18.944;2022-09-20T08:31:41;101957.41;;;13.07;81.03
55550;BME280;41397;49.972;18.944;2022-09-20T08:34:42;101950.69;;;13.11;80.71
55550;BME280;41397;49.972;18.944;2022-09-20T08:37:44;101952.10;;;13.17;80.55
55550;BME280;41397;49.972;18.944;2022-09-20T08:40:46;101952.77;;;13.21;80.73
55550;BME280;41397;49.972;18.944;2022-09-20T08:43:58;101951.77;;;13.22;80.19
55550;BME280;41397;49.972;18.944;2022-09-20T08:50:16;101958.61;;;13.29;79.87
55550;BME280;41397;49.972;18.944;2022-09-20T08:53:17;101953.51;;;13.36;79.95
55550;BME280;41397;49.972;18.944;2022-09-20T08:56:19;101962.53;;;13.38;79.39
55550;BME280;41397;49.972;18.944;2022-09-20T08:59:22;101967.89;;;13.39;79.02
55550;BME280;41397;49.972;18.944;2022-09-20T09:02:30;101967.15;;;13.37;79.37
55550;BME280;41397;49.972;18.944;2022-09-20T09:05:34;101966.34;;;13.48;79.52
55550;BME280;41397;49.972;18.944;2022-09-20T09:08:37;101961.15;;;13.56;79.94
55550;BME280;41397;49.972;18.944;2022-09-20T09:11:40;101966.74;;;13.54;79.96
55550;BME280;41397;49.972;18.944;2022-09-20T09:14:41;101952.52;;;13.61;80.01
55550;BME280;41397;49.972;18.944;2022-09-20T09:17:49;101950.88;;;13.58;79.43
55550;BME280;41397;49.972;18.944;2022-09-20T09:20:50;101950.21;;;13.67;79.12
55550;BME280;41397;49.972;18.944;2022-09-20T09:24:01;101946.98;;;13.73;79.20
55550;BME280;41397;49.972;18.944;2022-09-20T09:27:14;101958.66;;;13.88;79.92
55550;BME280;41397;49.972;18.944;2022-09-20T09:30:22;101954.63;;;14.05;79.93
55550;BME280;41397;49.972;18.944;2022-09-20T09:33:27;101947.54;;;14.25;79.01
55550;BME280;41397;49.972;18.944;2022-09-20T09:36:30;101944.51;;;14.63;79.16
55550;BME280;41397;49.972;18.944;2022-09-20T09:39:36;101943.52;;;15.09;77.71
55550;BME280;41397;49.972;18.944;2022-09-20T09:42:52;101941.34;;;15.47;76.73
55550;BME280;41397;49.972;18.944;2022-09-20T09:45:55;101944.27;;;15.66;74.14
55550;BME280;41397;49.972;18.944;2022-09-20T09:49:54;101939.89;;;15.64;72.87
55550;BME280;41397;49.972;18.944;2022-09-20T09:52:17;101939.74;;;15.65;72.20
55550;BME280;41397;49.972;18.944;2022-09-20T10:05:42;101929.28;;;15.48;71.39
55550;BME280;41397;49.972;18.944;2022-09-20T10:15:25;101924.96;;;15.98;71.33
55550;BME280;41397;49.972;18.944;2022-09-20T10:18:29;101929.10;;;16.04;70.52
55550;BME280;41397;49.972;18.944;2022-09-20T10:21:40;101931.71;;;16.06;70.98
55550;BME280;41397;49.972;18.944;2022-09-20T10:28:09;101938.13;;;15.63;72.08
55550;BME280;41397;49.972;18.944;2022-09-20T10:31:24;101940.01;;;15.62;73.40
55550;BME280;41397;49.972;18.944;2022-09-20T10:37:44;101934.52;;;15.51;74.14
55550;BME280;41397;49.972;18.944;2022-09-20T10:44:23;101925.01;;;15.55;75.19
55550;BME280;41397;49.972;18.944;2022-09-20T10:47:31;101932.23;;;15.67;76.43
55550;BME280;41397;49.972;18.944;2022-09-20T11:07:10;101922.14;;;16.52;72.48
55550;BME280;41397;49.972;18.944;2022-09-20T11:10:28;101932.25;;;16.41;72.01
55550;BME280;41397;49.972;18.944;2022-09-20T11:16:55;101937.23;;;16.06;69.97
55550;BME280;41397;49.972;18.944;2022-09-20T11:23:31;101937.70;;;16.11;71.75
55550;BME280;41397;49.972;18.944;2022-09-20T11:26:33;101930.65;;;16.18;72.58
55550;BME280;41397;49.972;18.944;2022-09-20T11:29:45;101927.55;;;16.32;72.75
55550;BME280;41397;49.972;18.944;2022-09-20T11:32:58;101926.52;;;16.54;72.41
55550;BME280;41397;49.972;18.944;2022-09-20T11:36:06;101925.55;;;16.65;70.80
55550;BME280;41397;49.972;18.944;2022-09-20T11:39:16;101922.07;;;16.42;68.95
55550;BME280;41397;49.972;18.944;2022-09-20T11:42:29;101943.64;;;16.48;69.09
55550;BME280;41397;49.972;18.944;2022-09-20T11:45:32;101969.63;;;16.25;70.22
55550;BME280;41397;49.972;18.944;2022-09-20T11:48:43;101964.48;;;15.99;67.64
55550;BME280;41397;49.972;18.944;2022-09-20T11:58:15;101959.56;;;15.70;68.90
55550;BME280;41397;49.972;18.944;2022-09-20T12:01:45;101967.96;;;15.58;70.17
55550;BME280;41397;49.972;18.944;2022-09-20T12:04:36;101963.73;;;15.53;70.68
55550;BME280;41397;49.972;18.944;2022-09-20T12:07:40;101961.88;;;15.43;71.55
55550;BME280;41397;49.972;18.944;2022-09-20T12:10:59;101967.50;;;15.41;72.51
55550;BME280;41397;49.972;18.944;2022-09-20T12:14:01;101971.27;;;15.40;73.69
55550;BME280;41397;49.972;18.944;2022-09-20T12:30:23;101968.16;;;15.34;74.40
55550;BME280;41397;49.972;18.944;2022-09-20T12:33:29;101961.26;;;15.39;74.43
55550;BME280;41397;49.972;18.944;2022-09-20T12:36:41;101956.88;;;15.37;74.42
55550;BME280;41397;49.972;18.944;2022-09-20T12:39:50;101959.89;;;15.34;74.58
55550;BME280;41397;49.972;18.944;2022-09-20T12:42:55;101953.39;;;15.23;74.48
55550;BME280;41397;49.972;18.944;2022-09-20T12:45:59;101953.63;;;15.31;74.34
55550;BME280;41397;49.972;18.944;2022-09-20T12:55:52;101949.56;;;15.58;75.41
55550;BME280;41397;49.972;18.944;2022-09-20T12:58:58;101942.90;;;15.72;73.56
55550;BME280;41397;49.972;18.944;2022-09-20T13:05:35;101943.82;;;15.93;72.65
55550;BME280;41397;49.972;18.944;2022-09-20T13:08:47;101935.07;;;16.09;72.68
55550;BME280;41397;49.972;18.944;2022-09-20T13:11:55;101946.78;;;16.23;73.23
55550;BME280;41397;49.972;18.944;2022-09-20T13:15:00;101937.57;;;16.33;70.59
55550;BME280;41397;49.972;18.944;2022-09-20T13:18:04;101936.98;;;16.30;67.24
55550;BME280;41397;49.972;18.944;2022-09-20T13:21:06;101938.11;;;16.27;66.40
55550;BME280;41397;49.972;18.944;2022-09-20T13:24:15;101936.81;;;16.31;66.84
55550;BME280;41397;49.972;18.944;2022-09-20T13:27:23;101936.57;;;16.34;66.26
55550;BME280;41397;49.972;18.944;2022-09-20T13:30:28;101939.13;;;16.26;65.14
55550;BME280;41397;49.972;18.944;2022-09-20T13:33:35;101935.03;;;16.20;62.69
55550;BME280;41397;49.972;18.944;2022-09-20T13:36:36;101936.02;;;16.19;63.60
55550;BME280;41397;49.972;18.944;2022-09-20T13:39:38;101946.30;;;16.17;63.04
55550;BME280;41397;49.972;18.944;2022-09-20T13:42:41;101947.73;;;16.12;62.31
55550;BME280;41397;49.972;18.944;2022-09-20T13:45:45;101948.20;;;16.17;63.91
55550;BME280;41397;49.972;18.944;2022-09-20T13:48:52;101935.54;;;16.14;62.07
55550;BME280;41397;49.972;18.944;2022-09-20T13:51:54;101945.80;;;16.24;63.89
55550;BME280;41397;49.972;18.944;2022-09-20T13:54:56;101946.51;;;16.26;64.49
55550;BME280;41397;49.972;18.944;2022-09-20T13:58:05;101954.95;;;16.24;64.85
55550;BME280;41397;49.972;18.944;2022-09-20T14:04:22;101952.52;;;16.31;63.24
55550;BME280;41397;49.972;18.944;2022-09-20T14:07:24;101948.01;;;16.30;64.15
55550;BME280;41397;49.972;18.944;2022-09-20T14:10:34;101960.95;;;16.29;68.14
55550;BME280;41397;49.972;18.944;2022-09-20T14:13:40;101961.13;;;16.16;69.38
55550;BME280;41397;49.972;18.944;2022-09-20T14:16:42;101956.98;;;15.90;69.69
55550;BME280;41397;49.972;18.944;2022-09-20T14:19:51;101957.69;;;16.03;70.53
55550;BME280;41397;49.972;18.944;2022-09-20T14:22:54;101951.24;;;16.14;70.47
55550;BME280;41397;49.972;18.944;2022-09-20T14:32:51;101962.34;;;16.03;70.34
55550;BME280;41397;49.972;18.944;2022-09-20T14:35:50;101973.42;;;15.91;70.60
55550;BME280;41397;49.972;18.944;2022-09-20T14:39:03;101974.55;;;15.89;70.27
55550;BME280;41397;49.972;18.944;2022-09-20T14:48:37;101971.27;;;15.40;72.69
55550;BME280;41397;49.972;18.944;2022-09-20T14:51:45;101963.38;;;15.36;73.23
55550;BME280;41397;49.972;18.944;2022-09-20T14:55:37;101968.65;;;15.27;73.71
55550;BME280;41397;49.972;18.944;2022-09-20T14:58:11;101963.89;;;15.29;73.84
55550;BME280;41397;49.972;18.944;2022-09-20T15:01:24;101965.66;;;15.30;73.72
55550;BME280;41397;49.972;18.944;2022-09-20T15:04:26;101967.03;;;15.14;74.62
55550;BME280;41397;49.972;18.944;2022-09-20T15:07:28;101977.58;;;15.20;74.46
55550;BME280;41397;49.972;18.944;2022-09-20T15:10:30;101972.29;;;15.17;74.06
55550;BME280;41397;49.972;18.944;2022-09-20T15:13:32;101970.70;;;15.14;73.94
55550;BME280;41397;49.972;18.944;2022-09-20T15:16:36;101975.31;;;15.02;74.01
55550;BME280;41397;49.972;18.944;2022-09-20T15:19:37;101971.70;;;15.02;73.96
55550;BME280;41397;49.972;18.944;2022-09-20T15:22:39;101973.68;;;15.00;73.98
55550;BME280;41397;49.972;18.944;2022-09-20T15:25:41;101971.79;;;15.00;74.41
55550;BME280;41397;49.972;18.944;2022-09-20T15:28:43;101980.06;;;15.00;74.42
55550;BME280;41397;49.972;18.944;2022-09-20T15:31:46;101983.22;;;14.96;75.04
55550;BME280;41397;49.972;18.944;2022-09-20T15:34:48;101983.47;;;14.93;75.18
55550;BME280;41397;49.972;18.944;2022-09-20T15:37:49;101988.84;;;14.94;75.26
55550;BME280;41397;49.972;18.944;2022-09-20T15:40:51;101991.73;;;14.93;75.32
55550;BME280;41397;49.972;18.944;2022-09-20T15:43:52;101999.99;;;14.93;75.33
55550;BME280;41397;49.972;18.944;2022-09-20T15:46:53;101999.23;;;14.91;75.44
55550;BME280;41397;49.972;18.944;2022-09-20T15:49:55;102006.73;;;14.88;75.59
55550;BME280;41397;49.972;18.944;2022-09-20T15:52:58;101998.37;;;14.90;75.51
55550;BME280;41397;49.972;18.944;2022-09-20T15:56:02;102010.37;;;14.89;75.53
55550;BME280;41397;49.972;18.944;2022-09-20T15:59:06;102017.15;;;14.85;75.89
55550;BME280;41397;49.972;18.944;2022-09-20T16:02:08;102009.59;;;14.76;76.19
55550;BME280;41397;49.972;18.944;2022-09-20T16:05:15;102013.11;;;14.78;76.17
55550;BME280;41397;49.972;18.944;2022-09-20T16:08:17;102011.01;;;14.81;76.29
55550;BME280;41397;49.972;18.944;2022-09-20T16:11:19;102020.61;;;14.76;76.67
55550;BME280;41397;49.972;18.944;2022-09-20T16:14:21;102020.74;;;14.74;76.87
55550;BME280;41397;49.972;18.944;2022-09-20T16:17:23;102021.00;;;14.71;77.28
55550;BME280;41397;49.972;18.944;2022-09-20T16:20:42;102026.61;;;14.70;77.55
55550;BME280;41397;49.972;18.944;2022-09-20T16:23:51;102030.48;;;14.67;78.21
55550;BME280;41397;49.972;18.944;2022-09-20T16:26:52;102030.48;;;14.67;78.40
55550;BME280;41397;49.972;18.944;2022-09-20T16:29:54;102030.98;;;14.61;78.40
55550;BME280;41397;49.972;18.944;2022-09-20T16:32:55;102033.84;;;14.59;78.64
55550;BME280;41397;49.972;18.944;2022-09-20T16:35:58;102046.64;;;14.60;78.72
55550;BME280;41397;49.972;18.944;2022-09-20T16:38:59;102046.98;;;14.56;78.87
55550;BME280;41397;49.972;18.944;2022-09-20T16:42:03;102057.13;;;14.55;79.20
55550;BME280;41397;49.972;18.944;2022-09-20T16:45:05;102048.31;;;14.50;79.27
55550;BME280;41397;49.972;18.944;2022-09-20T16:48:07;102059.22;;;14.52;79.46
55550;BME280;41397;49.972;18.944;2022-09-20T16:51:08;102061.62;;;14.56;80.56
55550;BME280;41397;49.972;18.944;2022-09-20T16:54:14;102063.15;;;14.60;79.54
55550;BME280;41397;49.972;18.944;2022-09-20T16:57:15;102070.40;;;14.61;78.89
55550;BME280;41397;49.972;18.944;2022-09-20T17:00:17;102077.67;;;14.62;78.47
55550;BME280;41397;49.972;18.944;2022-09-20T17:03:21;102076.05;;;14.60;78.11
55550;BME280;41397;49.972;18.944;2022-09-20T17:06:27;102085.27;;;14.59;78.29
55550;BME280;41397;49.972;18.944;2022-09-20T17:09:28;102083.53;;;14.58;77.95
55550;BME280;41397;49.972;18.944;2022-09-20T17:12:36;102100.16;;;14.56;78.02
55550;BME280;41397;49.972;18.944;2022-09-20T17:15:44;102102.19;;;14.54;77.63
55550;BME280;41397;49.972;18.944;2022-09-20T17:18:49;102100.51;;;14.52;77.34
55550;BME280;41397;49.972;18.944;2022-09-20T17:21:52;102105.48;;;14.47;77.10
55550;BME280;41397;49.972;18.944;2022-09-20T17:24:54;102105.48;;;14.47;77.21
55550;BME280;41397;49.972;18.944;2022-09-20T17:27:55;102110.23;;;14.44;76.93
55550;BME280;41397;49.972;18.944;2022-09-20T17:30:59;102116.08;;;14.40;76.64
55550;BME280;41397;49.972;18.944;2022-09-20T17:34:06;102122.05;;;14.34;76.67
55550;BME280;41397;49.972;18.944;2022-09-20T17:37:09;102129.68;;;14.30;76.27
55550;BME280;41397;49.972;18.944;2022-09-20T17:40:10;102131.77;;;14.27;76.13
55550;BME280;41397;49.972;18.944;2022-09-20T17:43:12;102127.40;;;14.24;76.04
55550;BME280;41397;49.972;18.944;2022-09-20T17:46:18;102134.02;;;14.21;75.79
55550;BME280;41397;49.972;18.944;2022-09-20T17:49:27;102144.92;;;14.10;75.38
55550;BME280;41397;49.972;18.944;2022-09-20T17:52:31;102141.31;;;14.10;75.54
55550;BME280;41397;49.972;18.944;2022-09-20T17:55:37;102141.67;;;14.05;75.50
55550;BME280;41397;49.972;18.944;2022-09-20T17:58:39;102137.27;;;14.03;75.68
55550;BME280;41397;49.972;18.944;2022-09-20T18:01:42;102142.00;;;14.01;75.76
55550;BME280;41397;49.972;18.944;2022-09-20T18:04:44;102154.98;;;13.98;75.72
55550;BME280;41397;49.972;18.944;2022-09-20T18:07:46;102156.09;;;13.96;75.88
55550;BME280;41397;49.972;18.944;2022-09-20T18:10:54;102157.10;;;13.95;76.13
55550;BME280;41397;49.972;18.944;2022-09-20T18:13:57;102161.73;;;13.94;76.22
55550;BME280;41397;49.972;18.944;2022-09-20T18:16:59;102159.20;;;13.91;76.43
55550;BME280;41397;49.972;18.944;2022-09-20T18:20:06;102164.80;;;13.90;76.43
55550;BME280;41397;49.972;18.944;2022-09-20T18:23:11;102169.66;;;13.86;76.71
55550;BME280;41397;49.972;18.944;2022-09-20T18:29:22;102174.39;;;13.84;76.86
55550;BME280;41397;49.972;18.944;2022-09-20T18:32:24;102180.99;;;13.82;76.77
55550;BME280;41397;49.972;18.944;2022-09-20T18:35:30;102181.45;;;13.75;77.15
55550;BME280;41397;49.972;18.944;2022-09-20T18:38:38;102186.27;;;13.72;77.23
55550;BME280;41397;49.972;18.944;2022-09-20T18:41:45;102188.27;;;13.70;77.49
55550;BME280;41397;49.972;18.944;2022-09-20T18:44:51;102205.42;;;13.61;77.82
55550;BME280;41397;49.972;18.944;2022-09-20T18:47:53;102200.80;;;13.61;77.62
55550;BME280;41397;49.972;18.944;2022-09-20T18:51:03;102205.65;;;13.58;78.13
55550;BME280;41397;49.972;18.944;2022-09-20T18:54:04;102212.37;;;13.53;78.33
55550;BME280;41397;49.972;18.944;2022-09-20T18:57:09;102214.43;;;13.50;78.64
55550;BME280;41397;49.972;18.944;2022-09-20T19:00:11;102209.30;;;13.45;78.97
55550;BME280;41397;49.972;18.944;2022-09-20T19:03:21;102224.10;;;13.30;78.96
55550;BME280;41397;49.972;18.944;2022-09-20T19:06:30;102227.73;;;13.30;79.23
55550;BME280;41397;49.972;18.944;2022-09-20T19:09:44;102231.48;;;13.29;79.54
55550;BME280;41397;49.972;18.944;2022-09-20T19:16:21;102229.45;;;13.19;79.83
55550;BME280;41397;49.972;18.944;2022-09-20T19:26:14;102251.41;;;13.19;80.23
55550;BME280;41397;49.972;18.944;2022-09-20T19:29:24;102253.09;;;13.21;80.15
55550;BME280;41397;49.972;18.944;2022-09-20T19:32:26;102250.11;;;13.24;79.94
55550;BME280;41397;49.972;18.944;2022-09-20T19:35:33;102247.45;;;13.23;80.36
55550;BME280;41397;49.972;18.944;2022-09-20T19:51:37;102248.88;;;13.16;80.48
55550;BME280;41397;49.972;18.944;2022-09-20T19:54:41;102249.85;;;13.15;80.40
55550;BME280;41397;49.972;18.944;2022-09-20T19:57:46;102253.82;;;13.10;80.71
55550;BME280;41397;49.972;18.944;2022-09-20T20:00:49;102251.95;;;13.11;80.81
55550;BME280;41397;49.972;18.944;2022-09-20T20:03:52;102255.55;;;12.99;81.09
55550;BME280;41397;49.972;18.944;2022-09-20T20:07:01;102254.03;;;13.07;80.89
55550;BME280;41397;49.972;18.944;2022-09-20T20:10:16;102262.27;;;13.07;80.98
55550;BME280;41397;49.972;18.944;2022-09-20T20:23:25;102258.84;;;13.04;81.35
55550;BME280;41397;49.972;18.944;2022-09-20T20:26:25;102258.84;;;13.04;81.18
55550;BME280;41397;49.972;18.944;2022-09-20T20:29:26;102258.74;;;13.05;81.10
55550;BME280;41397;49.972;18.944;2022-09-20T20:32:28;102249.73;;;13.03;81.29
55550;BME280;41397;49.972;18.944;2022-09-20T20:35:29;102259.18;;;12.99;81.48
55550;BME280;41397;49.972;18.944;2022-09-20T20:38:31;102268.29;;;13.00;81.44
55550;BME280;41397;49.972;18.944;2022-09-20T20:41:37;102268.29;;;13.00;81.40
55550;BME280;41397;49.972;18.944;2022-09-20T20:44:43;102273.88;;;12.98;81.53
55550;BME280;41397;49.972;18.944;2022-09-20T20:47:45;102272.22;;;12.96;81.41
55550;BME280;41397;49.972;18.944;2022-09-20T20:54:02;102261.09;;;12.84;81.35
55550;BME280;41397;49.972;18.944;2022-09-20T20:57:04;102268.23;;;12.87;81.12
55550;BME280;41397;49.972;18.944;2022-09-20T21:00:10;102271.10;;;12.85;81.15
55550;BME280;41397;49.972;18.944;2022-09-20T21:03:12;102260.87;;;12.87;81.01
55550;BME280;41397;49.972;18.944;2022-09-20T21:06:14;102262.95;;;12.84;80.87
55550;BME280;41397;49.972;18.944;2022-09-20T21:09:17;102262.17;;;12.82;80.70
55550;BME280;41397;49.972;18.944;2022-09-20T21:12:19;102252.41;;;12.78;80.87
55550;BME280;41397;49.972;18.944;2022-09-20T21:15:21;102261.73;;;12.75;80.99
55550;BME280;41397;49.972;18.944;2022-09-20T21:18:22;102265.34;;;12.76;80.84
55550;BME280;41397;49.972;18.944;2022-09-20T21:21:26;102260.06;;;12.73;80.94
55550;BME280;41397;49.972;18.944;2022-09-20T21:24:27;102264.98;;;12.68;81.03
55550;BME280;41397;49.972;18.944;2022-09-20T21:27:28;102269.02;;;12.62;81.22
55550;BME280;41397;49.972;18.944;2022-09-20T21:30:30;102271.77;;;12.62;81.21